createdAt,value
2022-12-28T00:02:44.601Z,92.81
2022-12-28T00:08:06.546Z,93.07
2022-12-28T00:13:30.679Z,93.82
2022-12-28T00:18:53.063Z,93.79
2022-12-28T00:24:21.722Z,93.07
2022-12-28T00:29:43.666Z,93.83
2022-12-28T00:35:06.126Z,93.96
2022-12-28T00:40:28.070Z,93.18
2022-12-28T00:45:50.266Z,93.21
2022-12-28T00:51:18.223Z,94.48
2022-12-28T00:56:41.869Z,94.43
2022-12-28T01:02:03.893Z,94.36
2022-12-28T01:07:25.910Z,93.88
2022-12-28T01:12:47.888Z,96.03
2022-12-28T01:18:09.762Z,95.55
2022-12-28T01:23:34.580Z,95.02
2022-12-28T01:28:58.225Z,95.15
2022-12-28T01:34:20.107Z,95.76
2022-12-28T01:39:42.120Z,95.40
2022-12-28T01:45:21.789Z,94.53
2022-12-28T01:50:44.604Z,95.44
2022-12-28T01:56:06.762Z,94.73
2022-12-28T02:01:29.404Z,95.22
2022-12-28T02:06:52.292Z,95.31
2022-12-28T02:12:17.013Z,95.07
2022-12-28T02:17:39.164Z,95.27
2022-12-28T02:23:36.108Z,96.12
2022-12-28T02:29:16.464Z,96.31
2022-12-28T02:34:57.018Z,96.45
2022-12-28T02:40:25.911Z,96.46
2022-12-28T02:45:49.301Z,97.01
2022-12-28T02:51:29.867Z,97.31
2022-12-28T02:57:04.043Z,98.63
2022-12-28T03:02:48.904Z,100.00
2022-12-28T03:08:17.556Z,99.25
2022-12-28T03:14:29.013Z,99.73
2022-12-28T03:19:57.176Z,100.00
2022-12-28T03:25:23.436Z,100.00
2022-12-28T03:30:52.255Z,100.00
2022-12-28T03:36:52.224Z,100.00
2022-12-28T03:42:26.481Z,100.00
2022-12-28T03:47:51.979Z,100.00
2022-12-28T03:53:15.357Z,100.00
2022-12-28T03:58:37.215Z,100.00
2022-12-28T04:03:59.036Z,100.00
2022-12-28T04:09:20.885Z,100.00
2022-12-28T04:14:42.694Z,100.00
2022-12-28T04:20:05.575Z,100.00
2022-12-28T04:25:27.460Z,100.00
2022-12-28T04:30:49.280Z,100.00
2022-12-28T04:36:14.505Z,100.00
2022-12-28T04:41:36.510Z,100.00
2022-12-28T04:46:58.352Z,100.00
2022-12-28T04:52:20.223Z,100.00
2022-12-28T04:57:45.961Z,100.00
2022-12-28T05:03:08.207Z,100.00
2022-12-28T05:08:37.289Z,100.00
2022-12-28T05:13:59.187Z,100.00
2022-12-28T05:19:21.018Z,100.00
2022-12-28T05:24:42.831Z,100.00
2022-12-28T05:30:05.204Z,100.00
2022-12-28T05:35:27.019Z,100.00
2022-12-28T05:40:49.080Z,100.00
2022-12-28T05:46:18.055Z,100.00
2022-12-28T05:51:40.323Z,100.00
2022-12-28T05:57:02.189Z,100.00
2022-12-28T06:02:24.872Z,100.00
2022-12-28T06:07:46.796Z,100.00
2022-12-28T06:13:08.646Z,100.00
2022-12-28T06:18:30.455Z,100.00
2022-12-28T06:23:55.127Z,100.00
2022-12-28T06:29:17.048Z,100.00
2022-12-28T06:34:38.904Z,100.00
2022-12-28T06:40:00.724Z,100.00
2022-12-28T06:45:22.752Z,100.00
2022-12-28T06:50:44.589Z,100.00
2022-12-28T06:56:08.709Z,100.00
2022-12-28T07:01:36.524Z,100.00
2022-12-28T07:06:58.516Z,100.00
2022-12-28T07:12:20.371Z,100.00
2022-12-28T07:17:42.220Z,100.00
2022-12-28T07:23:04.044Z,100.00
2022-12-28T07:28:25.899Z,100.00
2022-12-28T07:33:48.874Z,100.00
2022-12-28T07:39:10.766Z,85.50
2022-12-28T07:44:36.894Z,81.19
2022-12-28T07:50:00.114Z,89.64
2022-12-28T07:55:22.005Z,91.65
2022-12-28T08:00:43.858Z,95.98
2022-12-28T08:06:08.575Z,97.72
2022-12-28T08:11:33.504Z,98.74
2022-12-28T08:16:55.383Z,99.27
2022-12-28T08:22:17.317Z,93.27
2022-12-28T08:27:39.207Z,93.69
2022-12-28T08:33:01.027Z,85.21
2022-12-28T08:38:22.860Z,79.29
2022-12-28T08:43:45.744Z,88.55
2022-12-28T08:49:07.856Z,88.62
2022-12-28T08:54:29.724Z,92.36
2022-12-28T08:59:51.582Z,92.99
2022-12-28T09:05:13.430Z,92.42
2022-12-28T09:10:35.887Z,91.11
2022-12-28T09:16:12.604Z,90.06
2022-12-28T09:21:37.432Z,86.79
2022-12-28T09:26:59.269Z,80.60
2022-12-28T09:32:21.180Z,82.60
2022-12-28T09:37:43.031Z,83.27
2022-12-28T09:43:05.651Z,83.42
2022-12-28T09:48:27.652Z,82.87
2022-12-28T09:53:49.590Z,82.44
2022-12-28T09:59:18.539Z,82.35
2022-12-28T10:04:45.753Z,82.70
2022-12-28T10:10:17.220Z,80.92
2022-12-28T10:15:39.490Z,79.87
2022-12-28T10:21:01.701Z,79.80
2022-12-28T10:26:23.545Z,78.93
2022-12-28T10:32:02.805Z,77.47
2022-12-28T10:37:27.332Z,78.51
2022-12-28T10:42:52.573Z,77.75
2022-12-28T10:48:24.862Z,75.05
2022-12-28T10:53:51.777Z,75.62
2022-12-28T10:59:13.583Z,76.58
2022-12-28T11:04:35.504Z,76.13
2022-12-28T11:10:21.517Z,75.81
2022-12-28T11:15:43.394Z,76.78
2022-12-28T11:21:05.404Z,76.90
2022-12-28T11:26:28.915Z,76.77
2022-12-28T11:32:04.193Z,76.77
2022-12-28T11:37:26.132Z,78.34
2022-12-28T11:42:56.174Z,78.15
2022-12-28T11:49:02.668Z,77.83
2022-12-28T11:54:37.076Z,77.75
2022-12-28T12:00:22.643Z,78.16
2022-12-28T12:05:50.070Z,77.89
2022-12-28T12:11:26.975Z,77.73
2022-12-28T12:16:57.211Z,78.38
2022-12-28T12:22:24.243Z,78.87
2022-12-28T12:27:54.116Z,78.81
2022-12-28T12:33:26.638Z,78.31
2022-12-28T12:39:09.771Z,77.79
2022-12-28T12:44:55.973Z,77.75
2022-12-28T12:50:21.746Z,79.15
2022-12-28T12:56:07.578Z,78.92
2022-12-28T13:01:54.575Z,79.14
2022-12-28T13:07:25.550Z,78.96
2022-12-28T13:12:47.594Z,79.80
2022-12-28T13:24:02.125Z,79.41
2022-12-28T13:29:27.300Z,79.57
2022-12-28T13:34:49.861Z,79.64
2022-12-28T13:40:15.889Z,79.68
2022-12-28T13:45:38.037Z,79.75
2022-12-28T13:51:00.041Z,80.02
2022-12-28T13:56:23.262Z,79.99
2022-12-28T14:01:49.207Z,79.49
2022-12-28T14:07:17.161Z,79.94
2022-12-28T14:12:39.400Z,80.48
2022-12-28T14:18:02.354Z,80.02
2022-12-28T14:23:29.546Z,80.78
2022-12-28T14:28:54.236Z,80.55
2022-12-28T14:34:26.893Z,80.15
2022-12-28T14:39:48.734Z,80.58
2022-12-28T14:51:28.252Z,81.46
2022-12-28T14:57:02.978Z,80.19
2022-12-28T15:02:51.383Z,79.82
2022-12-28T15:08:13.652Z,80.29
2022-12-28T15:13:35.590Z,80.56
2022-12-28T15:18:57.443Z,80.13
2022-12-28T15:24:22.680Z,80.22
2022-12-28T15:30:05.043Z,80.50
2022-12-28T15:35:27.422Z,80.29
2022-12-28T15:40:55.335Z,79.99
2022-12-28T15:46:17.225Z,79.79
2022-12-28T15:51:40.561Z,79.89
2022-12-28T15:57:02.507Z,79.65
2022-12-28T16:02:24.493Z,80.15
2022-12-28T16:07:46.486Z,79.39
2022-12-28T16:13:08.343Z,80.20
2022-12-28T16:18:30.192Z,79.92
2022-12-28T16:23:52.612Z,80.31
2022-12-28T16:29:14.607Z,80.33
2022-12-28T16:34:36.440Z,80.49
2022-12-28T16:39:58.254Z,81.03
2022-12-28T16:45:20.156Z,80.91
2022-12-28T16:50:42.514Z,80.00
2022-12-28T16:56:05.686Z,80.03
2022-12-28T17:01:28.668Z,79.87
2022-12-28T17:06:52.025Z,79.77
2022-12-28T17:12:13.907Z,79.33
2022-12-28T17:17:35.788Z,79.25
2022-12-28T17:22:57.725Z,79.25
2022-12-28T17:28:20.028Z,79.52
2022-12-28T17:33:50.077Z,79.32
2022-12-28T17:39:11.988Z,78.97
2022-12-28T17:44:34.073Z,78.94
2022-12-28T17:49:56.048Z,78.84
2022-12-28T17:55:17.999Z,78.84
2022-12-28T18:00:39.953Z,78.57
2022-12-28T18:06:01.859Z,78.58
2022-12-28T18:11:23.761Z,78.10
2022-12-28T18:16:45.729Z,77.92
2022-12-28T18:22:07.648Z,77.86
2022-12-28T18:27:29.593Z,77.50
2022-12-28T18:32:51.628Z,78.07
2022-12-28T18:38:13.553Z,77.03
2022-12-28T18:43:35.416Z,77.44
2022-12-28T18:48:57.268Z,77.40
2022-12-28T18:54:19.156Z,77.33
2022-12-28T18:59:40.980Z,77.05
2022-12-28T19:05:03.824Z,77.64
2022-12-28T19:10:25.805Z,77.59
2022-12-28T19:15:47.751Z,77.29
2022-12-28T19:21:39.058Z,76.99
2022-12-28T19:27:00.928Z,77.80
2022-12-28T19:32:22.917Z,77.29
2022-12-28T19:37:44.768Z,77.70
2022-12-28T19:43:06.630Z,77.49
2022-12-28T19:48:28.453Z,77.21
2022-12-28T19:53:50.431Z,77.65
2022-12-28T19:59:12.312Z,77.51
2022-12-28T20:04:34.309Z,77.51
2022-12-28T20:09:56.359Z,77.97
2022-12-28T20:15:18.236Z,78.00
2022-12-28T20:21:09.291Z,78.18
2022-12-28T20:26:23.532Z,78.21
2022-12-28T20:31:45.540Z,78.10
2022-12-28T20:37:07.508Z,78.00
2022-12-28T20:42:29.339Z,78.11
2022-12-28T20:47:52.780Z,78.51
2022-12-28T20:53:15.675Z,78.61
2022-12-28T20:58:38.306Z,78.78
2022-12-28T21:04:00.330Z,78.54
2022-12-28T21:09:22.311Z,79.17
2022-12-28T21:14:44.127Z,79.20
2022-12-28T21:20:06.408Z,79.50
2022-12-28T21:25:28.260Z,79.18
2022-12-28T21:30:54.959Z,79.25
2022-12-28T21:36:18.599Z,79.96
2022-12-28T21:41:40.520Z,79.41
2022-12-28T21:47:02.376Z,79.79
2022-12-28T21:52:24.291Z,79.86
2022-12-28T21:57:50.094Z,79.79
2022-12-28T22:03:12.030Z,80.08
2022-12-28T22:08:34.188Z,80.29
2022-12-28T22:13:56.014Z,80.11
2022-12-28T22:19:17.855Z,79.65
2022-12-28T22:24:39.680Z,80.02
2022-12-28T22:30:01.547Z,80.13
2022-12-28T22:35:23.932Z,79.54
2022-12-28T22:40:45.769Z,80.31
2022-12-28T22:46:10.804Z,79.61
2022-12-28T22:51:32.717Z,80.05
2022-12-28T22:56:54.606Z,79.67
2022-12-28T23:02:16.590Z,78.95
2022-12-28T23:07:38.661Z,79.20
2022-12-28T23:13:00.613Z,78.98
2022-12-28T23:18:22.524Z,78.54
2022-12-28T23:23:44.356Z,79.03
2022-12-28T23:29:06.182Z,78.79
2022-12-28T23:34:28.025Z,78.18
2022-12-28T23:39:49.854Z,78.88
2022-12-28T23:45:13.931Z,79.28
2022-12-28T23:50:35.756Z,79.16
2022-12-28T23:55:58.451Z,78.82
